sensor_id;sensor_type;location;lat;lon;timestamp;P1;durP1;ratioP1;P2;durP2;ratioP2
50988;SDS011;37008;52.210;21.112;2023-03-01T00:01:29;111.55;;;48.53;;
50988;SDS011;37008;52.210;21.112;2023-03-01T00:03:56;105.57;;;47.00;;
50988;SDS011;37008;52.210;21.112;2023-03-01T00:06:23;84.70;;;42.05;;
50988;SDS011;37008;52.210;21.112;2023-03-01T00:08:49;94.85;;;44.33;;
50988;SDS011;37008;52.210;21.112;2023-03-01T00:13:42;79.07;;;41.28;;
50988;SDS011;37008;52.210;21.112;2023-03-01T00:16:10;77.20;;;40.83;;
50988;SDS011;37008;52.210;21.112;2023-03-01T00:18:37;82.75;;;42.78;;
50988;SDS011;37008;52.210;21.112;2023-03-01T00:21:03;89.15;;;43.25;;
50988;SDS011;37008;52.210;21.112;2023-03-01T00:23:30;108.60;;;49.53;;
50988;SDS011;37008;52.210;21.112;2023-03-01T00:25:56;119.72;;;49.80;;
50988;SDS011;37008;52.210;21.112;2023-03-01T00:28:21;99.15;;;46.40;;
50988;SDS011;37008;52.210;21.112;2023-03-01T00:30:47;87.93;;;42.75;;
50988;SDS011;37008;52.210;21.112;2023-03-01T00:33:13;91.38;;;45.15;;
50988;SDS011;37008;52.210;21.112;2023-03-01T00:35:39;90.57;;;45.40;;
50988;SDS011;37008;52.210;21.112;2023-03-01T00:38:04;89.13;;;46.72;;
50988;SDS011;37008;52.210;21.112;2023-03-01T00:40:32;90.97;;;44.53;;
50988;SDS011;37008;52.210;21.112;2023-03-01T00:42:59;85.95;;;44.10;;
50988;SDS011;37008;52.210;21.112;2023-03-01T00:45:24;94.10;;;47.90;;
50988;SDS011;37008;52.210;21.112;2023-03-01T00:47:50;99.78;;;47.85;;
50988;SDS011;37008;52.210;21.112;2023-03-01T00:50:16;99.55;;;49.85;;
50988;SDS011;37008;52.210;21.112;2023-03-01T00:52:43;95.55;;;46.80;;
50988;SDS011;37008;52.210;21.112;2023-03-01T00:55:09;82.18;;;44.28;;
50988;SDS011;37008;52.210;21.112;2023-03-01T00:57:35;82.90;;;41.92;;
50988;SDS011;37008;52.210;21.112;2023-03-01T01:00:01;87.40;;;43.83;;
50988;SDS011;37008;52.210;21.112;2023-03-01T01:02:27;83.13;;;44.83;;
50988;SDS011;37008;52.210;21.112;2023-03-01T01:04:53;90.32;;;44.63;;
50988;SDS011;37008;52.210;21.112;2023-03-01T01:07:18;83.57;;;45.03;;
50988;SDS011;37008;52.210;21.112;2023-03-01T01:09:47;82.32;;;44.40;;
50988;SDS011;37008;52.210;21.112;2023-03-01T01:12:12;93.70;;;44.95;;
50988;SDS011;37008;52.210;21.112;2023-03-01T01:14:38;84.50;;;42.97;;
50988;SDS011;37008;52.210;21.112;2023-03-01T01:17:04;86.88;;;44.22;;
50988;SDS011;37008;52.210;21.112;2023-03-01T01:19:29;80.53;;;41.60;;
50988;SDS011;37008;52.210;21.112;2023-03-01T01:21:55;78.47;;;43.08;;
50988;SDS011;37008;52.210;21.112;2023-03-01T01:24:22;79.20;;;41.33;;
50988;SDS011;37008;52.210;21.112;2023-03-01T01:26:47;82.20;;;43.05;;
50988;SDS011;37008;52.210;21.112;2023-03-01T01:29:13;82.97;;;41.67;;
50988;SDS011;37008;52.210;21.112;2023-03-01T01:31:40;89.38;;;43.15;;
50988;SDS011;37008;52.210;21.112;2023-03-01T01:34:09;87.60;;;43.28;;
50988;SDS011;37008;52.210;21.112;2023-03-01T01:36:42;84.25;;;43.92;;
50988;SDS011;37008;52.210;21.112;2023-03-01T01:39:08;85.03;;;41.92;;
50988;SDS011;37008;52.210;21.112;2023-03-01T01:41:38;81.95;;;43.47;;
50988;SDS011;37008;52.210;21.112;2023-03-01T01:51:41;81.03;;;43.13;;
50988;SDS011;37008;52.210;21.112;2023-03-01T01:54:14;86.18;;;43.13;;
50988;SDS011;37008;52.210;21.112;2023-03-01T01:56:49;85.28;;;42.20;;
50988;SDS011;37008;52.210;21.112;2023-03-01T01:59:25;82.82;;;42.40;;
50988;SDS011;37008;52.210;21.112;2023-03-01T02:01:53;81.00;;;42.72;;
50988;SDS011;37008;52.210;21.112;2023-03-01T02:04:20;78.82;;;42.58;;
50988;SDS011;37008;52.210;21.112;2023-03-01T02:06:48;82.43;;;41.92;;
50988;SDS011;37008;52.210;21.112;2023-03-01T02:09:19;80.65;;;41.97;;
50988;SDS011;37008;52.210;21.112;2023-03-01T02:11:46;77.50;;;40.65;;
50988;SDS011;37008;52.210;21.112;2023-03-01T02:14:14;82.70;;;41.80;;
50988;SDS011;37008;52.210;21.112;2023-03-01T02:16:40;78.82;;;40.50;;
50988;SDS011;37008;52.210;21.112;2023-03-01T02:19:07;77.20;;;41.13;;
50988;SDS011;37008;52.210;21.112;2023-03-01T02:24:52;78.85;;;41.92;;
50988;SDS011;37008;52.210;21.112;2023-03-01T02:30:21;100.72;;;47.40;;
50988;SDS011;37008;52.210;21.112;2023-03-01T02:32:47;94.15;;;45.38;;
50988;SDS011;37008;52.210;21.112;2023-03-01T02:35:14;137.32;;;51.40;;
50988;SDS011;37008;52.210;21.112;2023-03-01T02:37:43;120.00;;;49.15;;
50988;SDS011;37008;52.210;21.112;2023-03-01T02:40:15;110.13;;;46.90;;
50988;SDS011;37008;52.210;21.112;2023-03-01T02:42:48;113.93;;;48.40;;
50988;SDS011;37008;52.210;21.112;2023-03-01T02:45:16;113.43;;;47.33;;
50988;SDS011;37008;52.210;21.112;2023-03-01T02:47:42;82.90;;;41.67;;
50988;SDS011;37008;52.210;21.112;2023-03-01T02:50:17;84.80;;;40.33;;
50988;SDS011;37008;52.210;21.112;2023-03-01T02:53:08;92.72;;;42.40;;
50988;SDS011;37008;52.210;21.112;2023-03-01T02:55:40;84.53;;;40.72;;
50988;SDS011;37008;52.210;21.112;2023-03-01T02:58:05;77.80;;;41.35;;
50988;SDS011;37008;52.210;21.112;2023-03-01T03:00:39;74.97;;;39.20;;
50988;SDS011;37008;52.210;21.112;2023-03-01T03:03:19;76.18;;;39.95;;
50988;SDS011;37008;52.210;21.112;2023-03-01T03:05:46;78.38;;;41.65;;
50988;SDS011;37008;52.210;21.112;2023-03-01T03:08:13;79.47;;;40.55;;
50988;SDS011;37008;52.210;21.112;2023-03-01T03:10:48;70.13;;;40.33;;
50988;SDS011;37008;52.210;21.112;2023-03-01T03:13:14;77.43;;;41.33;;
50988;SDS011;37008;52.210;21.112;2023-03-01T03:15:41;73.22;;;40.88;;
50988;SDS011;37008;52.210;21.112;2023-03-01T03:18:08;75.00;;;38.75;;
50988;SDS011;37008;52.210;21.112;2023-03-01T03:20:37;76.50;;;40.20;;
50988;SDS011;37008;52.210;21.112;2023-03-01T03:23:05;73.13;;;38.63;;
50988;SDS011;37008;52.210;21.112;2023-03-01T03:25:31;77.10;;;39.75;;
50988;SDS011;37008;52.210;21.112;2023-03-01T03:27:57;72.32;;;37.60;;
50988;SDS011;37008;52.210;21.112;2023-03-01T03:30:24;72.47;;;38.95;;
50988;SDS011;37008;52.210;21.112;2023-03-01T03:32:52;73.93;;;38.00;;
50988;SDS011;37008;52.210;21.112;2023-03-01T03:35:18;75.50;;;37.60;;
50988;SDS011;37008;52.210;21.112;2023-03-01T03:37:46;75.05;;;37.72;;
50988;SDS011;37008;52.210;21.112;2023-03-01T03:40:31;69.65;;;37.58;;
50988;SDS011;37008;52.210;21.112;2023-03-01T03:43:04;74.53;;;37.60;;
50988;SDS011;37008;52.210;21.112;2023-03-01T03:45:37;73.88;;;36.38;;
50988;SDS011;37008;52.210;21.112;2023-03-01T03:48:03;70.45;;;37.33;;
50988;SDS011;37008;52.210;21.112;2023-03-01T03:50:31;68.80;;;37.63;;
50988;SDS011;37008;52.210;21.112;2023-03-01T03:52:56;74.70;;;36.05;;
50988;SDS011;37008;52.210;21.112;2023-03-01T03:55:22;74.30;;;37.05;;
50988;SDS011;37008;52.210;21.112;2023-03-01T03:57:48;72.03;;;37.55;;
50988;SDS011;37008;52.210;21.112;2023-03-01T04:00:17;73.25;;;37.33;;
50988;SDS011;37008;52.210;21.112;2023-03-01T04:02:45;65.15;;;36.38;;
50988;SDS011;37008;52.210;21.112;2023-03-01T04:05:13;65.93;;;35.55;;
50988;SDS011;37008;52.210;21.112;2023-03-01T04:07:40;71.57;;;36.65;;
50988;SDS011;37008;52.210;21.112;2023-03-01T04:10:08;70.35;;;37.13;;
50988;SDS011;37008;52.210;21.112;2023-03-01T04:12:35;75.45;;;36.25;;
50988;SDS011;37008;52.210;21.112;2023-03-01T04:15:02;70.75;;;37.28;;
50988;SDS011;37008;52.210;21.112;2023-03-01T04:17:38;68.03;;;36.22;;
50988;SDS011;37008;52.210;21.112;2023-03-01T04:20:14;69.72;;;36.90;;
50988;SDS011;37008;52.210;21.112;2023-03-01T04:22:56;67.97;;;36.45;;
50988;SDS011;37008;52.210;21.112;2023-03-01T04:25:23;72.30;;;36.42;;
50988;SDS011;37008;52.210;21.112;2023-03-01T04:27:49;72.28;;;37.65;;
50988;SDS011;37008;52.210;21.112;2023-03-01T04:30:15;72.18;;;37.10;;
50988;SDS011;37008;52.210;21.112;2023-03-01T04:32:41;69.28;;;35.92;;
50988;SDS011;37008;52.210;21.112;2023-03-01T04:35:07;67.40;;;34.85;;
50988;SDS011;37008;52.210;21.112;2023-03-01T04:37:33;75.68;;;36.53;;
50988;SDS011;37008;52.210;21.112;2023-03-01T04:40:00;67.80;;;34.58;;
50988;SDS011;37008;52.210;21.112;2023-03-01T04:42:26;68.80;;;37.30;;
50988;SDS011;37008;52.210;21.112;2023-03-01T04:44:51;74.15;;;37.38;;
50988;SDS011;37008;52.210;21.112;2023-03-01T04:47:17;74.20;;;36.55;;
50988;SDS011;37008;52.210;21.112;2023-03-01T04:49:43;65.68;;;36.88;;
50988;SDS011;37008;52.210;21.112;2023-03-01T04:52:09;75.00;;;37.58;;
50988;SDS011;37008;52.210;21.112;2023-03-01T04:54:34;77.95;;;37.22;;
50988;SDS011;37008;52.210;21.112;2023-03-01T04:57:01;70.13;;;37.22;;
50988;SDS011;37008;52.210;21.112;2023-03-01T04:59:28;66.82;;;36.35;;
50988;SDS011;37008;52.210;21.112;2023-03-01T05:01:54;71.97;;;37.35;;
50988;SDS011;37008;52.210;21.112;2023-03-01T05:04:21;79.78;;;37.58;;
50988;SDS011;37008;52.210;21.112;2023-03-01T05:06:49;73.28;;;38.40;;
50988;SDS011;37008;52.210;21.112;2023-03-01T05:09:19;67.25;;;36.08;;
50988;SDS011;37008;52.210;21.112;2023-03-01T05:11:54;73.55;;;39.35;;
50988;SDS011;37008;52.210;21.112;2023-03-01T05:14:27;75.30;;;37.80;;
50988;SDS011;37008;52.210;21.112;2023-03-01T05:16:53;71.15;;;36.67;;
50988;SDS011;37008;52.210;21.112;2023-03-01T05:19:22;77.85;;;38.70;;
50988;SDS011;37008;52.210;21.112;2023-03-01T05:22:13;70.32;;;37.92;;
50988;SDS011;37008;52.210;21.112;2023-03-01T05:25:09;69.65;;;36.85;;
50988;SDS011;37008;52.210;21.112;2023-03-01T05:28:01;72.20;;;38.05;;
50988;SDS011;37008;52.210;21.112;2023-03-01T05:30:30;72.03;;;38.58;;
50988;SDS011;37008;52.210;21.112;2023-03-01T05:32:57;77.35;;;38.45;;
50988;SDS011;37008;52.210;21.112;2023-03-01T05:35:23;71.82;;;36.45;;
50988;SDS011;37008;52.210;21.112;2023-03-01T05:37:49;77.10;;;38.97;;
50988;SDS011;37008;52.210;21.112;2023-03-01T05:40:25;73.68;;;38.30;;
50988;SDS011;37008;52.210;21.112;2023-03-01T05:45:50;75.30;;;38.05;;
50988;SDS011;37008;52.210;21.112;2023-03-01T05:48:28;72.10;;;38.33;;
50988;SDS011;37008;52.210;21.112;2023-03-01T05:51:00;75.65;;;38.30;;
50988;SDS011;37008;52.210;21.112;2023-03-01T05:53:31;81.55;;;36.97;;
50988;SDS011;37008;52.210;21.112;2023-03-01T05:56:05;78.63;;;38.30;;
50988;SDS011;37008;52.210;21.112;2023-03-01T05:58:43;72.40;;;38.53;;
50988;SDS011;37008;52.210;21.112;2023-03-01T06:01:12;79.07;;;38.92;;
50988;SDS011;37008;52.210;21.112;2023-03-01T06:03:38;77.45;;;40.08;;
50988;SDS011;37008;52.210;21.112;2023-03-01T06:06:15;76.93;;;38.90;;
50988;SDS011;37008;52.210;21.112;2023-03-01T06:11:56;81.47;;;39.05;;
50988;SDS011;37008;52.210;21.112;2023-03-01T06:14:37;72.78;;;37.63;;
50988;SDS011;37008;52.210;21.112;2023-03-01T06:17:11;76.15;;;37.10;;
50988;SDS011;37008;52.210;21.112;2023-03-01T06:20:00;70.82;;;37.50;;
50988;SDS011;37008;52.210;21.112;2023-03-01T06:23:27;77.30;;;37.78;;
50988;SDS011;37008;52.210;21.112;2023-03-01T06:39:39;66.93;;;34.58;;
50988;SDS011;37008;52.210;21.112;2023-03-01T06:45:37;75.10;;;36.80;;
50988;SDS011;37008;52.210;21.112;2023-03-01T06:55:53;67.70;;;34.78;;
50988;SDS011;37008;52.210;21.112;2023-03-01T07:02:16;70.18;;;33.33;;
50988;SDS011;37008;52.210;21.112;2023-03-01T07:04:42;69.72;;;33.75;;
50988;SDS011;37008;52.210;21.112;2023-03-01T07:07:07;69.40;;;34.78;;
50988;SDS011;37008;52.210;21.112;2023-03-01T07:09:33;67.25;;;34.40;;
50988;SDS011;37008;52.210;21.112;2023-03-01T07:12:08;63.53;;;33.65;;
50988;SDS011;37008;52.210;21.112;2023-03-01T07:14:36;68.07;;;33.13;;
50988;SDS011;37008;52.210;21.112;2023-03-01T07:17:01;67.93;;;34.58;;
50988;SDS011;37008;52.210;21.112;2023-03-01T07:19:27;64.45;;;30.77;;
50988;SDS011;37008;52.210;21.112;2023-03-01T07:21:53;62.88;;;32.53;;
50988;SDS011;37008;52.210;21.112;2023-03-01T07:24:20;62.65;;;32.53;;
50988;SDS011;37008;52.210;21.112;2023-03-01T07:26:50;62.30;;;31.15;;
50988;SDS011;37008;52.210;21.112;2023-03-01T07:29:16;57.35;;;30.73;;
50988;SDS011;37008;52.210;21.112;2023-03-01T07:31:42;63.15;;;32.22;;
50988;SDS011;37008;52.210;21.112;2023-03-01T07:34:08;66.75;;;31.05;;
50988;SDS011;37008;52.210;21.112;2023-03-01T07:36:33;58.72;;;31.08;;
50988;SDS011;37008;52.210;21.112;2023-03-01T07:38:59;56.80;;;29.58;;
50988;SDS011;37008;52.210;21.112;2023-03-01T07:41:27;63.55;;;30.48;;
50988;SDS011;37008;52.210;21.112;2023-03-01T07:43:53;55.65;;;29.55;;
50988;SDS011;37008;52.210;21.112;2023-03-01T07:46:19;54.03;;;27.83;;
50988;SDS011;37008;52.210;21.112;2023-03-01T07:48:45;52.38;;;27.45;;
50988;SDS011;37008;52.210;21.112;2023-03-01T07:51:11;53.88;;;28.63;;
50988;SDS011;37008;52.210;21.112;2023-03-01T07:53:38;50.40;;;28.08;;
50988;SDS011;37008;52.210;21.112;2023-03-01T07:56:10;59.53;;;28.63;;
50988;SDS011;37008;52.210;21.112;2023-03-01T07:58:37;52.80;;;27.13;;
50988;SDS011;37008;52.210;21.112;2023-03-01T08:01:06;53.70;;;27.75;;
50988;SDS011;37008;52.210;21.112;2023-03-01T08:03:34;47.30;;;24.95;;
50988;SDS011;37008;52.210;21.112;2023-03-01T08:06:00;49.97;;;26.23;;
50988;SDS011;37008;52.210;21.112;2023-03-01T08:08:30;53.72;;;25.75;;
50988;SDS011;37008;52.210;21.112;2023-03-01T08:10:56;53.03;;;25.20;;
50988;SDS011;37008;52.210;21.112;2023-03-01T08:13:23;49.47;;;25.63;;
50988;SDS011;37008;52.210;21.112;2023-03-01T08:15:49;40.08;;;22.77;;
50988;SDS011;37008;52.210;21.112;2023-03-01T08:18:19;38.85;;;19.70;;
50988;SDS011;37008;52.210;21.112;2023-03-01T08:20:45;30.20;;;16.38;;
50988;SDS011;37008;52.210;21.112;2023-03-01T08:23:14;33.78;;;18.95;;
50988;SDS011;37008;52.210;21.112;2023-03-01T08:25:47;33.72;;;20.27;;
50988;SDS011;37008;52.210;21.112;2023-03-01T08:28:12;34.45;;;18.50;;
50988;SDS011;37008;52.210;21.112;2023-03-01T08:30:56;37.30;;;18.83;;
50988;SDS011;37008;52.210;21.112;2023-03-01T08:36:42;32.88;;;18.67;;
50988;SDS011;37008;52.210;21.112;2023-03-01T08:39:27;35.00;;;19.45;;
50988;SDS011;37008;52.210;21.112;2023-03-01T08:51:26;34.45;;;19.90;;
50988;SDS011;37008;52.210;21.112;2023-03-01T08:56:36;37.55;;;18.52;;
50988;SDS011;37008;52.210;21.112;2023-03-01T09:05:23;32.88;;;18.25;;
50988;SDS011;37008;52.210;21.112;2023-03-01T09:07:49;33.70;;;17.40;;
50988;SDS011;37008;52.210;21.112;2023-03-01T09:10:20;31.63;;;16.40;;
50988;SDS011;37008;52.210;21.112;2023-03-01T09:12:56;35.40;;;19.40;;
50988;SDS011;37008;52.210;21.112;2023-03-01T09:15:21;40.10;;;18.05;;
50988;SDS011;37008;52.210;21.112;2023-03-01T09:17:47;28.08;;;16.90;;
50988;SDS011;37008;52.210;21.112;2023-03-01T09:20:12;31.95;;;17.52;;
50988;SDS011;37008;52.210;21.112;2023-03-01T09:22:38;30.25;;;17.42;;
50988;SDS011;37008;52.210;21.112;2023-03-01T09:25:04;28.77;;;17.75;;
50988;SDS011;37008;52.210;21.112;2023-03-01T09:27:51;31.13;;;17.33;;
50988;SDS011;37008;52.210;21.112;2023-03-01T09:30:26;31.42;;;18.33;;
50988;SDS011;37008;52.210;21.112;2023-03-01T09:32:52;34.72;;;16.88;;
50988;SDS011;37008;52.210;21.112;2023-03-01T09:35:23;33.65;;;18.25;;
50988;SDS011;37008;52.210;21.112;2023-03-01T09:37:52;33.42;;;17.77;;
50988;SDS011;37008;52.210;21.112;2023-03-01T09:40:42;36.20;;;19.25;;
50988;SDS011;37008;52.210;21.112;2023-03-01T09:46:27;34.30;;;17.63;;
50988;SDS011;37008;52.210;21.112;2023-03-01T09:48:57;27.40;;;16.63;;
50988;SDS011;37008;52.210;21.112;2023-03-01T09:51:41;34.47;;;18.30;;
50988;SDS011;37008;52.210;21.112;2023-03-01T09:54:16;33.03;;;18.27;;
50988;SDS011;37008;52.210;21.112;2023-03-01T09:56:57;36.00;;;21.05;;
50988;SDS011;37008;52.210;21.112;2023-03-01T10:02:41;41.38;;;21.73;;
50988;SDS011;37008;52.210;21.112;2023-03-01T10:08:18;41.35;;;22.45;;
50988;SDS011;37008;52.210;21.112;2023-03-01T10:11:03;39.13;;;21.70;;
50988;SDS011;37008;52.210;21.112;2023-03-01T10:19:05;34.10;;;20.58;;
50988;SDS011;37008;52.210;21.112;2023-03-01T10:21:36;32.88;;;19.83;;
50988;SDS011;37008;52.210;21.112;2023-03-01T10:24:11;30.02;;;18.90;;
50988;SDS011;37008;52.210;21.112;2023-03-01T10:26:55;33.53;;;19.60;;
50988;SDS011;37008;52.210;21.112;2023-03-01T10:29:25;35.97;;;19.60;;
50988;SDS011;37008;52.210;21.112;2023-03-01T10:32:02;33.58;;;19.02;;
50988;SDS011;37008;52.210;21.112;2023-03-01T10:34:33;28.02;;;17.73;;
50988;SDS011;37008;52.210;21.112;2023-03-01T10:37:13;33.45;;;18.60;;
50988;SDS011;37008;52.210;21.112;2023-03-01T10:39:57;31.42;;;17.10;;
50988;SDS011;37008;52.210;21.112;2023-03-01T10:42:32;27.88;;;18.95;;
50988;SDS011;37008;52.210;21.112;2023-03-01T10:45:14;30.15;;;17.90;;
50988;SDS011;37008;52.210;21.112;2023-03-01T10:48:20;33.40;;;17.40;;
50988;SDS011;37008;52.210;21.112;2023-03-01T10:56:51;29.60;;;16.70;;
50988;SDS011;37008;52.210;21.112;2023-03-01T10:59:29;26.92;;;15.77;;
50988;SDS011;37008;52.210;21.112;2023-03-01T11:04:34;29.25;;;15.95;;
50988;SDS011;37008;52.210;21.112;2023-03-01T11:07:01;31.00;;;17.08;;
50988;SDS011;37008;52.210;21.112;2023-03-01T11:09:30;26.38;;;15.20;;
50988;SDS011;37008;52.210;21.112;2023-03-01T11:12:02;26.38;;;14.98;;
50988;SDS011;37008;52.210;21.112;2023-03-01T11:14:35;29.30;;;15.00;;
50988;SDS011;37008;52.210;21.112;2023-03-01T11:17:11;25.40;;;13.88;;
50988;SDS011;37008;52.210;21.112;2023-03-01T11:19:42;27.85;;;14.20;;
50988;SDS011;37008;52.210;21.112;2023-03-01T11:22:16;25.02;;;14.65;;
50988;SDS011;37008;52.210;21.112;2023-03-01T11:24:52;24.55;;;14.00;;
50988;SDS011;37008;52.210;21.112;2023-03-01T11:27:21;24.13;;;13.48;;
50988;SDS011;37008;52.210;21.112;2023-03-01T11:32:25;22.75;;;13.50;;
50988;SDS011;37008;52.210;21.112;2023-03-01T11:34:58;23.23;;;14.07;;
50988;SDS011;37008;52.210;21.112;2023-03-01T11:37:38;31.98;;;17.98;;
50988;SDS011;37008;52.210;21.112;2023-03-01T11:46:08;27.00;;;13.35;;
50988;SDS011;37008;52.210;21.112;2023-03-01T12:00:31;26.67;;;14.00;;
50988;SDS011;37008;52.210;21.112;2023-03-01T12:20:30;23.52;;;13.98;;
50988;SDS011;37008;52.210;21.112;2023-03-01T12:23:20;24.88;;;13.07;;
50988;SDS011;37008;52.210;21.112;2023-03-01T12:47:40;19.70;;;12.45;;
50988;SDS011;37008;52.210;21.112;2023-03-01T12:50:24;19.38;;;12.80;;
50988;SDS011;37008;52.210;21.112;2023-03-01T12:52:57;21.70;;;14.02;;
50988;SDS011;37008;52.210;21.112;2023-03-01T12:56:02;20.73;;;11.95;;
50988;SDS011;37008;52.210;21.112;2023-03-01T12:59:35;16.73;;;11.20;;
50988;SDS011;37008;52.210;21.112;2023-03-01T13:01:56;18.20;;;11.68;;
50988;SDS011;37008;52.210;21.112;2023-03-01T13:04:33;15.63;;;10.48;;
50988;SDS011;37008;52.210;21.112;2023-03-01T13:19:29;18.20;;;10.98;;
50988;SDS011;37008;52.210;21.112;2023-03-01T13:22:33;17.88;;;10.90;;
50988;SDS011;37008;52.210;21.112;2023-03-01T14:28:56;21.50;;;12.93;;
50988;SDS011;37008;52.210;21.112;2023-03-01T14:34:33;23.88;;;13.18;;
50988;SDS011;37008;52.210;21.112;2023-03-01T14:37:09;25.95;;;14.27;;
50988;SDS011;37008;52.210;21.112;2023-03-01T14:39:48;22.02;;;14.48;;
50988;SDS011;37008;52.210;21.112;2023-03-01T14:42:14;24.23;;;13.85;;
50988;SDS011;37008;52.210;21.112;2023-03-01T14:57:42;21.98;;;15.18;;
50988;SDS011;37008;52.210;21.112;2023-03-01T16:02:10;39.45;;;25.00;;
50988;SDS011;37008;52.210;21.112;2023-03-01T16:34:43;27.15;;;16.95;;
50988;SDS011;37008;52.210;21.112;2023-03-01T16:37:31;35.80;;;16.67;;
50988;SDS011;37008;52.210;21.112;2023-03-01T16:40:16;35.35;;;18.23;;
50988;SDS011;37008;52.210;21.112;2023-03-01T16:43:01;110.03;;;45.45;;
50988;SDS011;37008;52.210;21.112;2023-03-01T16:49:10;69.85;;;29.08;;
50988;SDS011;37008;52.210;21.112;2023-03-01T16:59:07;50.00;;;22.80;;
50988;SDS011;37008;52.210;21.112;2023-03-01T17:09:34;46.40;;;21.05;;
50988;SDS011;37008;52.210;21.112;2023-03-01T17:23:37;94.55;;;41.47;;
50988;SDS011;37008;52.210;21.112;2023-03-01T17:26:18;60.03;;;29.42;;
50988;SDS011;37008;52.210;21.112;2023-03-01T17:28:56;68.80;;;33.75;;
50988;SDS011;37008;52.210;21.112;2023-03-01T17:31:28;51.60;;;27.23;;
50988;SDS011;37008;52.210;21.112;2023-03-01T17:37:35;52.33;;;31.20;;
50988;SDS011;37008;52.210;21.112;2023-03-01T17:40:19;54.10;;;28.42;;
50988;SDS011;37008;52.210;21.112;2023-03-01T17:42:45;51.03;;;28.05;;
50988;SDS011;37008;52.210;21.112;2023-03-01T17:45:10;61.90;;;31.05;;
50988;SDS011;37008;52.210;21.112;2023-03-01T17:50:57;51.05;;;28.23;;
50988;SDS011;37008;52.210;21.112;2023-03-01T17:53:23;50.90;;;28.52;;
50988;SDS011;37008;52.210;21.112;2023-03-01T17:55:58;54.10;;;27.00;;
50988;SDS011;37008;52.210;21.112;2023-03-01T17:58:28;189.07;;;103.63;;
50988;SDS011;37008;52.210;21.112;2023-03-01T18:01:20;69.55;;;37.88;;
50988;SDS011;37008;52.210;21.112;2023-03-01T18:03:49;61.25;;;36.83;;
50988;SDS011;37008;52.210;21.112;2023-03-01T18:06:16;65.72;;;38.78;;
50988;SDS011;37008;52.210;21.112;2023-03-01T18:08:46;73.53;;;39.42;;
50988;SDS011;37008;52.210;21.112;2023-03-01T18:11:18;78.18;;;46.22;;
50988;SDS011;37008;52.210;21.112;2023-03-01T18:13:45;58.88;;;33.58;;
50988;SDS011;37008;52.210;21.112;2023-03-01T18:16:12;46.72;;;24.48;;
50988;SDS011;37008;52.210;21.112;2023-03-01T18:19:00;42.85;;;24.85;;
50988;SDS011;37008;52.210;21.112;2023-03-01T18:21:27;42.80;;;24.30;;
50988;SDS011;37008;52.210;21.112;2023-03-01T18:23:53;141.50;;;81.80;;
50988;SDS011;37008;52.210;21.112;2023-03-01T18:26:18;67.13;;;38.88;;
50988;SDS011;37008;52.210;21.112;2023-03-01T18:28:46;55.83;;;30.08;;
50988;SDS011;37008;52.210;21.112;2023-03-01T18:31:15;46.20;;;22.98;;
50988;SDS011;37008;52.210;21.112;2023-03-01T18:33:43;41.47;;;21.73;;
50988;SDS011;37008;52.210;21.112;2023-03-01T18:36:18;48.75;;;23.83;;
50988;SDS011;37008;52.210;21.112;2023-03-01T18:38:46;44.67;;;25.30;;
50988;SDS011;37008;52.210;21.112;2023-03-01T18:41:12;75.38;;;40.33;;
50988;SDS011;37008;52.210;21.112;2023-03-01T18:43:38;84.35;;;46.42;;
50988;SDS011;37008;52.210;21.112;2023-03-01T18:46:05;83.32;;;42.33;;
50988;SDS011;37008;52.210;21.112;2023-03-01T18:48:31;80.90;;;43.88;;
50988;SDS011;37008;52.210;21.112;2023-03-01T18:51:05;76.57;;;41.55;;
50988;SDS011;37008;52.210;21.112;2023-03-01T18:53:35;84.82;;;47.53;;
50988;SDS011;37008;52.210;21.112;2023-03-01T18:56:06;72.07;;;39.58;;
50988;SDS011;37008;52.210;21.112;2023-03-01T18:58:35;93.15;;;51.35;;
50988;SDS011;37008;52.210;21.112;2023-03-01T19:01:01;111.55;;;63.72;;
50988;SDS011;37008;52.210;21.112;2023-03-01T19:03:30;91.22;;;48.15;;
50988;SDS011;37008;52.210;21.112;2023-03-01T19:05:56;116.18;;;63.92;;
50988;SDS011;37008;52.210;21.112;2023-03-01T19:08:23;63.58;;;33.13;;
50988;SDS011;37008;52.210;21.112;2023-03-01T19:10:58;79.40;;;43.33;;
50988;SDS011;37008;52.210;21.112;2023-03-01T19:13:25;188.90;;;104.00;;
50988;SDS011;37008;52.210;21.112;2023-03-01T19:18:50;221.13;;;99.75;;
50988;SDS011;37008;52.210;21.112;2023-03-01T19:21:24;192.32;;;96.63;;
50988;SDS011;37008;52.210;21.112;2023-03-01T19:23:51;151.50;;;62.47;;
50988;SDS011;37008;52.210;21.112;2023-03-01T19:26:18;178.43;;;65.65;;
50988;SDS011;37008;52.210;21.112;2023-03-01T19:28:45;184.93;;;86.38;;
50988;SDS011;37008;52.210;21.112;2023-03-01T19:31:15;168.88;;;77.25;;
50988;SDS011;37008;52.210;21.112;2023-03-01T19:33:47;129.70;;;58.13;;
50988;SDS011;37008;52.210;21.112;2023-03-01T19:36:14;90.80;;;44.33;;
50988;SDS011;37008;52.210;21.112;2023-03-01T19:38:40;93.10;;;46.47;;
50988;SDS011;37008;52.210;21.112;2023-03-01T19:41:11;105.00;;;54.30;;
50988;SDS011;37008;52.210;21.112;2023-03-01T19:43:42;105.25;;;55.05;;
50988;SDS011;37008;52.210;21.112;2023-03-01T19:46:09;73.45;;;41.47;;
50988;SDS011;37008;52.210;21.112;2023-03-01T19:52:09;134.82;;;63.95;;
50988;SDS011;37008;52.210;21.112;2023-03-01T19:54:38;88.05;;;43.55;;
50988;SDS011;37008;52.210;21.112;2023-03-01T19:57:04;105.78;;;50.00;;
50988;SDS011;37008;52.210;21.112;2023-03-01T19:59:29;69.03;;;34.83;;
50988;SDS011;37008;52.210;21.112;2023-03-01T20:01:55;60.78;;;32.42;;
50988;SDS011;37008;52.210;21.112;2023-03-01T20:04:21;52.58;;;28.58;;
50988;SDS011;37008;52.210;21.112;2023-03-01T20:06:47;62.78;;;32.13;;
50988;SDS011;37008;52.210;21.112;2023-03-01T20:09:13;60.47;;;30.25;;
50988;SDS011;37008;52.210;21.112;2023-03-01T20:11:40;74.75;;;29.23;;
50988;SDS011;37008;52.210;21.112;2023-03-01T20:14:08;58.80;;;31.17;;
50988;SDS011;37008;52.210;21.112;2023-03-01T20:16:54;62.88;;;34.30;;
50988;SDS011;37008;52.210;21.112;2023-03-01T20:19:33;73.07;;;34.88;;
50988;SDS011;37008;52.210;21.112;2023-03-01T20:21:59;88.45;;;41.17;;
50988;SDS011;37008;52.210;21.112;2023-03-01T20:24:28;68.40;;;36.22;;
50988;SDS011;37008;52.210;21.112;2023-03-01T20:26:57;105.57;;;42.55;;
50988;SDS011;37008;52.210;21.112;2023-03-01T20:29:26;166.73;;;65.57;;
50988;SDS011;37008;52.210;21.112;2023-03-01T20:31:51;166.63;;;69.85;;
50988;SDS011;37008;52.210;21.112;2023-03-01T20:34:17;148.07;;;62.47;;
50988;SDS011;37008;52.210;21.112;2023-03-01T20:36:43;135.30;;;56.75;;
50988;SDS011;37008;52.210;21.112;2023-03-01T20:39:09;137.48;;;59.13;;
50988;SDS011;37008;52.210;21.112;2023-03-01T20:41:36;140.77;;;59.00;;
50988;SDS011;37008;52.210;21.112;2023-03-01T20:44:05;128.32;;;52.45;;
50988;SDS011;37008;52.210;21.112;2023-03-01T20:46:31;114.82;;;50.22;;
50988;SDS011;37008;52.210;21.112;2023-03-01T20:48:58;122.40;;;53.58;;
50988;SDS011;37008;52.210;21.112;2023-03-01T20:51:27;126.75;;;52.35;;
50988;SDS011;37008;52.210;21.112;2023-03-01T20:53:56;147.45;;;63.55;;